WetterOnline ( https://www.wetteronline.at )

Wetter aktuell Berus

Aktuelles Wetter: Berus (367m)

6-stündlich | Neueste Meldungen
Ortszeit Temperatur Wetter
So, 15.12. 19:00 6.4° C bedeckt
So, 15.12. 13:00 7.8° C bewölkt
So, 15.12. 7:00 8.5° C bedeckt
So, 15.12. 1:00 6.5° C Sprühregen
Sa, 14.12. 19:00 6.6° C bedeckt
Sa, 14.12. 13:00 6.6° C bedeckt
Sa, 14.12. 7:00 6.7° C Sprühregen
Sa, 14.12. 1:00 3.1° C bedeckt
Ortszeit Temperatur Wetter
So, 15.12. 21:30 6.2° C leichter Regen
So, 15.12. 21:20 6.2° C leichter Regen
So, 15.12. 21:10 6.3° C leichter Regen
So, 15.12. 21:00 6.2° C bedeckt
So, 15.12. 20:50 6.2° C bedeckt
So, 15.12. 20:40 6.0° C bedeckt
So, 15.12. 20:30 6.1° C bewölkt
So, 15.12. 20:00 6.4° C bewölkt
Ortszeit Relative Feuchte Sichtweite
So, 15.12. 19:00 89% 45 km
So, 15.12. 13:00 91% 60 km
So, 15.12. 7:00 93% >70 km
So, 15.12. 1:00 96% 17 km
Sa, 14.12. 19:00 83% 45 km
Sa, 14.12. 13:00 76% 29 km
Sa, 14.12. 7:00 94% 13 km
Sa, 14.12. 1:00 90% 29 km
Ortszeit Relative Feuchte Sichtweite
So, 15.12. 21:30 95% 23 km
So, 15.12. 21:20 95% -
So, 15.12. 21:10 93% -
So, 15.12. 21:00 92% 30 km
So, 15.12. 20:50 92% -
So, 15.12. 20:40 91% -
So, 15.12. 20:30 91% 35 km
So, 15.12. 20:00 89% 40 km
Ortszeit Niederschlagsmenge Niederschlagsart
So, 15.12. 19:00 10 l/m2 in 12 Std. Regen
So, 15.12. 13:00 10 l/m2 in 6 Std. Regen
So, 15.12. 7:00 9 l/m2 in 12 Std. Regen
So, 15.12. 1:00 0.1 l/m2 in 6 Std. Regen
Sa, 14.12. 19:00 2 l/m2 in 12 Std. Regen
Sa, 14.12. 13:00 2 l/m2 in 6 Std. Regen
Sa, 14.12. 7:00 4 l/m2 in 12 Std. Regen
Sa, 14.12. 1:00 1 l/m2 in 6 Std. Regen
Ortszeit Niederschlagsmenge Niederschlagsart
So, 15.12. 21:30 0.1 l/m2 in 1 Std. -
So, 15.12. 21:20 keine Meldung -
So, 15.12. 21:10 keine Meldung -
So, 15.12. 21:00 0.0 l/m2 in 1 Std. -
So, 15.12. 20:50 keine Meldung -
So, 15.12. 20:40 keine Meldung -
So, 15.12. 20:30 0.0 l/m2 in 1 Std. -
So, 15.12. 20:00 0.0 l/m2 in 1 Std. -
Ortszeit Stärke Spitze Richtung
km/h Bft. km/h Grad Sektor
So, 15.12. 19:00 18 3 43 230° SW
So, 15.12. 13:00 24 4 72 230° SW
So, 15.12. 7:00 43 6 83 230° SW
So, 15.12. 1:00 26 4 44 210° SW
Sa, 14.12. 19:00 22 4 76 240° SW
Sa, 14.12. 13:00 39 6 81 240° SW
Sa, 14.12. 7:00 50 6 81 240° SW
Sa, 14.12. 1:00 28 4 61 210° SW
Ortszeit Stärke Spitze Richtung
km/h Bft. km/h Grad Sektor
So, 15.12. 21:30 11 2 18 180° S
So, 15.12. 21:20 11 2 - 180° S
So, 15.12. 21:10 11 2 - 190° S
So, 15.12. 21:00 14 3 22 180° S
So, 15.12. 20:50 14 3 - 180° S
So, 15.12. 20:40 13 3 - 180° S
So, 15.12. 20:30 14 3 22 200° S
So, 15.12. 20:00 18 3 29 210° SW
Ortszeit Untergrenze Bedeckung Gattung
total tief tief mittel hoch
So, 15.12. 19:00 1140 m 8/8 8/8 - - -
So, 15.12. 13:00 480 m 7/8 7/8 - - -
So, 15.12. 7:00 510 m 8/8 8/8 - - -
So, 15.12. 1:00 270 m 8/8 8/8 - - -
Sa, 14.12. 19:00 480 m 8/8 8/8 - - -
Sa, 14.12. 13:00 750 m 8/8 8/8 - - -
Sa, 14.12. 7:00 240 m 7/8 7/8 - - -
Sa, 14.12. 1:00 420 m 8/8 8/8 - - -
Ortszeit Bedeckungsgrad in Achtel und Wolkenuntergrenze
So, 15.12. 21:30 4(390m) 5(1020m) 8(1500m)
So, 15.12. 21:20 4(390m) 5(1020m) 8(1500m)
So, 15.12. 21:10 5(390m) 7(1500m) 8(2100m)
So, 15.12. 21:00 7(1500m) 8(2100m) 8(3600m)
So, 15.12. 20:50 7(1500m) 8(2100m) 8(3600m)
So, 15.12. 20:40 1(480m) 8(2400m) 8(3600m)
So, 15.12. 20:30 3(510m) 7(1500m) 8(4800m)
So, 15.12. 20:00 2(690m) 7(960m) 8(4800m)
Ortszeit Luftdruck NN (hPa) Tendenz (hPa in 3 Std.)
So, 15.12. 19:00 1010 + 1,4
So, 15.12. 13:00 1006 + 2,6
So, 15.12. 7:00 1000 0,0
So, 15.12. 1:00 1002 - 2,3
Sa, 14.12. 19:00 1004 + 3,1
Sa, 14.12. 13:00 1000 + 3,6
Sa, 14.12. 7:00 988 0,0
Sa, 14.12. 1:00 992 - 0,1
Ortszeit Luftdruck NN (hPa) Tendenz (hPa in 3 Std.)
So, 15.12. 21:30 1010 + 0,6
So, 15.12. 21:20 1010 keine Meldung
So, 15.12. 21:10 1010 keine Meldung
So, 15.12. 21:00 1010 + 0,9
So, 15.12. 20:50 1010 keine Meldung
So, 15.12. 20:40 1010 keine Meldung
So, 15.12. 20:30 1010 + 1,2
So, 15.12. 20:00 1010 + 1,1
Ortszeit Schneehöhe (cm)
So, 15.12. 19:00 0
So, 15.12. 13:00 0
So, 15.12. 7:00 0
So, 15.12. 1:00 0
Sa, 14.12. 19:00 0
Sa, 14.12. 13:00 0
Sa, 14.12. 7:00 0
Sa, 14.12. 1:00 0
Ortszeit Schneehöhe (cm)
So, 15.12. 21:30 0
So, 15.12. 21:20 0
So, 15.12. 21:10 0
So, 15.12. 21:00 0
So, 15.12. 20:50 0
So, 15.12. 20:40 0
So, 15.12. 20:30 0
So, 15.12. 20:00 0
Link zu dieser Seite / Seite empfehlen

Das Wetter in ...